Time;durP1;ratioP1;P1;durP2;ratioP2;P2;SDS_P1;SDS_P2;PMS_P1;PMS_P2;Temp;Humidity;BMP_temperature;BMP_pressure;BME280_temperature;BME280_humidity;BME280_pressure;Samples;Min_cycle;Max_cycle;Signal;HPM_P1;HPM_P2
2021/08/01 00:02:00;;;;;;;49.10;29.00;;;;;;;21.07;71.80;100247.29;1705663;83;21256;-59
2021/08/01 00:05:06;;;;;;;53.63;29.82;;;;;;;21.07;72.07;100245.36;1705021;83;21615;-59
2021/08/01 00:08:12;;;;;;;47.98;27.55;;;;;;;21.08;72.18;100251.75;1696006;83;21273;-59
2021/08/01 00:11:17;;;;;;;47.50;25.23;;;;;;;21.07;72.17;100255.10;1705679;83;21264;-60
2021/08/01 00:14:23;;;;;;;35.10;22.27;;;;;;;21.07;72.19;100257.89;1705623;83;21217;-59
2021/08/01 00:17:28;;;;;;;40.78;21.57;;;;;;;21.03;72.19;100258.06;1705330;83;21213;-59
2021/08/01 00:20:34;;;;;;;27.67;18.95;;;;;;;20.97;72.24;100253.49;1705180;83;21280;-58
2021/08/01 00:23:41;;;;;;;24.43;16.25;;;;;;;20.97;72.74;100259.59;1705064;83;21233;-59
2021/08/01 00:26:47;;;;;;;26.35;15.75;;;;;;;20.97;72.88;100261.84;1705550;83;21292;-59
2021/08/01 00:29:53;;;;;;;21.15;13.15;;;;;;;20.96;73.04;100262.95;1705286;83;21261;-58
2021/08/01 00:32:59;;;;;;;24.90;13.08;;;;;;;20.94;73.34;100260.91;1698621;83;21186;-59
2021/08/01 00:36:08;;;;;;;19.35;12.95;;;;;;;20.88;73.74;100256.34;1705171;83;21240;-59
2021/08/01 00:39:13;;;;;;;21.42;13.68;;;;;;;20.84;74.25;100256.52;1705189;83;21213;-58
2021/08/01 00:42:19;;;;;;;25.85;13.25;;;;;;;20.79;74.56;100256.39;1709319;83;21316;-58
2021/08/01 00:45:25;;;;;;;25.88;12.90;;;;;;;20.70;74.83;100267.08;1714640;83;21336;-58
2021/08/01 00:48:31;;;;;;;26.90;13.38;;;;;;;20.69;75.11;100265.94;1718838;83;21213;-59
2021/08/01 00:51:37;;;;;;;27.58;13.62;;;;;;;20.68;75.12;100269.25;1724818;82;21311;-60
2021/08/01 00:54:42;;;;;;;25.75;12.85;;;;;;;20.70;75.00;100271.78;1718792;83;21209;-58
2021/08/01 00:57:48;;;;;;;21.42;12.82;;;;;;;20.71;74.88;100263.19;1724985;82;21332;-59
2021/08/01 01:01:10;;;;;;;22.10;11.83;;;;;;;20.75;74.67;100256.59;1712708;83;21392;-59
2021/08/01 01:04:48;;;;;;;22.58;12.53;;;;;;;20.78;74.49;100258.89;1723129;83;21220;-59
2021/08/01 01:08:08;;;;;;;21.50;12.65;;;;;;;20.83;74.33;100263.18;1721295;83;21201;-58
2021/08/01 01:11:41;;;;;;;18.50;12.53;;;;;;;20.84;74.21;100255.12;1701796;83;21368;-58
2021/08/01 01:14:52;;;;;;;25.80;11.88;;;;;;;20.85;74.29;100249.88;1715527;83;21260;-58
2021/08/01 01:18:01;;;;;;;18.23;12.43;;;;;;;20.83;74.48;100250.66;1715503;83;21888;-57
2021/08/01 01:21:41;;;;;;;26.25;12.23;;;;;;;20.81;74.63;100252.83;1714908;83;21387;-58
2021/08/01 01:24:47;;;;;;;19.37;11.73;;;;;;;20.81;74.83;100255.61;1715729;83;21292;-58
2021/08/01 01:28:02;;;;;;;17.90;12.45;;;;;;;20.79;75.07;100256.39;1719760;83;21197;-58
2021/08/01 01:31:27;;;;;;;23.57;12.47;;;;;;;20.78;75.34;100263.06;1720403;83;21903;-58
2021/08/01 01:34:46;;;;;;;29.85;12.58;;;;;;;20.79;75.55;100268.91;1716142;83;21249;-58
2021/08/01 01:37:58;;;;;;;21.68;12.03;;;;;;;20.78;75.54;100263.06;1717086;83;21194;-58
2021/08/01 01:41:22;;;;;;;31.65;12.50;;;;;;;20.78;75.65;100267.23;1636750;86;21270;-58
2021/08/01 01:44:30;;;;;;;25.48;12.53;;;;;;;20.78;75.68;100257.50;1714811;83;21198;-58
2021/08/01 01:47:37;;;;;;;25.50;11.68;;;;;;;20.79;75.75;100264.20;1709731;83;21197;-59
2021/08/01 01:50:44;;;;;;;23.12;12.10;;;;;;;20.84;75.79;100259.30;1725115;80;21377;-59
2021/08/01 01:53:50;;;;;;;25.65;12.90;;;;;;;20.89;75.62;100259.94;1715162;83;21403;-59
2021/08/01 01:56:56;;;;;;;24.57;13.35;;;;;;;20.91;75.53;100260.02;1717826;82;21422;-59
2021/08/01 02:00:01;;;;;;;23.27;12.35;;;;;;;20.91;75.30;100271.15;1717844;82;21284;-57
2021/08/01 02:03:09;;;;;;;24.02;12.63;;;;;;;20.91;75.09;100263.33;1725843;82;21256;-58
2021/08/01 02:06:23;;;;;;;27.00;12.98;;;;;;;20.88;74.83;100259.12;1704758;82;21225;-58
2021/08/01 02:09:54;;;;;;;19.80;12.80;;;;;;;20.86;74.62;100267.39;1721065;82;21269;-58
2021/08/01 02:13:03;;;;;;;24.87;12.47;;;;;;;20.83;74.37;100272.92;1694855;83;21725;-58
2021/08/01 02:16:10;;;;;;;28.80;13.18;;;;;;;20.77;74.17;100276.12;1713612;83;21225;-58
2021/08/01 02:19:18;;;;;;;29.02;14.03;;;;;;;20.73;74.19;100265.73;1713476;83;21849;-58
2021/08/01 02:22:22;;;;;;;21.05;12.73;;;;;;;20.64;74.33;100272.77;1696478;83;21327;-58
2021/08/01 02:25:28;;;;;;;21.30;12.33;;;;;;;20.53;74.53;100266.11;1713731;82;21223;-58
2021/08/01 02:28:34;;;;;;;24.35;13.15;;;;;;;20.42;74.98;100264.18;1713571;83;21196;-58
2021/08/01 02:31:39;;;;;;;25.08;13.03;;;;;;;20.34;75.42;100274.27;1709830;84;21723;-58
2021/08/01 02:34:46;;;;;;;21.42;13.03;;;;;;;20.30;75.88;100274.47;1712354;83;21335;-58
2021/08/01 02:37:53;;;;;;;21.50;13.20;;;;;;;20.32;76.10;100277.01;1714283;82;21348;-58
2021/08/01 02:40:58;;;;;;;24.70;13.58;;;;;;;20.33;76.23;100274.52;1721858;83;21304;-59
2021/08/01 02:44:04;;;;;;;25.12;13.45;;;;;;;20.35;76.35;100280.69;1717122;81;21438;-58
2021/08/01 02:47:09;;;;;;;23.02;13.70;;;;;;;20.38;76.46;100281.59;1710264;83;21376;-58
2021/08/01 02:50:16;;;;;;;22.22;14.18;;;;;;;20.41;76.39;100281.97;1710557;83;21367;-58
2021/08/01 02:53:22;;;;;;;28.87;15.35;;;;;;;20.43;76.37;100277.55;1713373;83;21406;-58
2021/08/01 02:56:29;;;;;;;24.50;15.48;;;;;;;20.42;76.35;100272.52;1714893;83;21391;-58
2021/08/01 02:59:35;;;;;;;23.35;14.55;;;;;;;20.49;76.34;100283.52;1714831;83;21852;-58
2021/08/01 03:02:47;;;;;;;26.20;14.90;;;;;;;20.58;76.21;100276.53;1702530;83;21236;-58
2021/08/01 03:05:55;;;;;;;20.97;14.10;;;;;;;20.66;76.07;100283.11;1698870;83;21182;-58
2021/08/01 03:09:02;;;;;;;21.90;14.87;;;;;;;20.74;75.87;100289.66;1705230;84;21190;-58
2021/08/01 03:12:18;;;;;;;21.12;13.60;;;;;;;20.79;75.70;100290.64;1706504;83;21209;-58
2021/08/01 03:15:24;;;;;;;20.85;14.83;;;;;;;20.86;75.77;100282.70;1710116;84;21395;-58
2021/08/01 03:22:42;;;;;;;20.20;13.38;;;;;;;21.01;75.43;100294.21;1713315;83;21205;-59
2021/08/01 03:25:49;;;;;;;18.20;13.85;;;;;;;21.06;75.23;100297.94;1714718;83;22173;-59
2021/08/01 03:28:58;;;;;;;21.68;14.38;;;;;;;21.10;75.26;100307.50;1704153;83;21733;-58
2021/08/01 03:32:07;;;;;;;16.87;13.88;;;;;;;21.21;75.13;100313.58;1714775;83;21363;-59
2021/08/01 03:35:16;;;;;;;20.10;13.95;;;;;;;21.27;75.00;100297.28;1714739;83;21389;-58
2021/08/01 03:38:29;;;;;;;16.15;13.80;;;;;;;21.37;74.97;100301.67;1698285;84;21359;-58
2021/08/01 03:41:55;;;;;;;21.73;14.40;;;;;;;21.46;74.82;100297.39;1708358;83;21270;-58
2021/08/01 03:45:01;;;;;;;18.95;13.10;;;;;;;21.59;74.34;100304.06;1715022;81;21418;-59
2021/08/01 03:48:07;;;;;;;15.78;13.05;;;;;;;21.70;73.97;100298.12;1720240;82;21919;-59
2021/08/01 03:51:12;;;;;;;22.13;14.05;;;;;;;21.79;73.48;100294.70;1728410;83;21367;-59
2021/08/01 03:54:20;;;;;;;16.75;13.75;;;;;;;21.88;73.19;100296.55;1728865;83;21205;-59
2021/08/01 03:57:25;;;;;;;21.60;14.18;;;;;;;21.97;72.93;100293.09;1728876;83;21371;-59
2021/08/01 04:00:32;;;;;;;19.98;13.90;;;;;;;22.06;72.75;100286.00;1728808;83;21232;-59
2021/08/01 04:03:40;;;;;;;18.60;12.75;;;;;;;22.15;72.45;100287.25;1728897;83;21967;-59
2021/08/01 04:06:47;;;;;;;21.30;13.72;;;;;;;22.27;72.20;100289.11;1728714;83;21240;-59
2021/08/01 04:09:54;;;;;;;18.95;13.80;;;;;;;22.36;71.75;100282.85;1728702;83;21371;-59
2021/08/01 04:13:00;;;;;;;20.12;14.03;;;;;;;22.45;71.43;100288.32;1706876;83;21358;-59
2021/08/01 04:16:07;;;;;;;19.92;14.45;;;;;;;22.53;71.16;100289.31;1728827;83;21359;-59
2021/08/01 04:19:17;;;;;;;18.48;14.25;;;;;;;22.65;70.88;100287.25;1728798;83;21345;-59
2021/08/01 04:22:21;;;;;;;20.55;15.08;;;;;;;22.73;70.53;100284.56;1734413;83;21857;-59
2021/08/01 04:25:28;;;;;;;20.10;14.75;;;;;;;22.85;70.32;100285.31;1715271;83;21204;-59
2021/08/01 04:28:33;;;;;;;19.48;14.30;;;;;;;22.95;70.03;100281.24;1734160;83;21212;-59
2021/08/01 04:31:39;;;;;;;22.73;14.58;;;;;;;23.06;69.78;100277.48;1720038;82;21259;-59
2021/08/01 04:34:46;;;;;;;18.57;14.63;;;;;;;23.17;69.56;100280.70;1719583;82;21322;-59
2021/08/01 04:37:52;;;;;;;21.42;13.98;;;;;;;23.27;69.31;100283.11;1734161;83;21243;-59
2021/08/01 04:40:58;;;;;;;19.02;14.93;;;;;;;23.39;69.13;100286.59;1734245;83;21402;-59
2021/08/01 04:44:03;;;;;;;22.87;14.65;;;;;;;23.49;68.77;100274.16;1729116;82;21272;-59
2021/08/01 04:47:12;;;;;;;22.58;14.38;;;;;;;23.60;68.28;100279.28;1730363;82;21849;-59
2021/08/01 04:50:20;;;;;;;20.15;14.18;;;;;;;23.72;67.92;100276.34;1728852;83;21346;-59
2021/08/01 04:53:26;;;;;;;19.00;13.95;;;;;;;23.82;67.74;100274.48;1728956;83;21225;-60
2021/08/01 04:56:39;;;;;;;25.20;13.70;;;;;;;23.94;67.62;100283.56;1709419;83;21919;-58
2021/08/01 04:59:48;;;;;;;18.40;14.60;;;;;;;24.07;67.48;100275.32;1728802;83;21213;-58
2021/08/01 05:02:53;;;;;;;19.52;14.50;;;;;;;24.18;67.29;100275.12;1728837;83;21233;-58
2021/08/01 05:05:59;;;;;;;20.62;14.98;;;;;;;24.31;66.83;100273.27;1728725;82;21474;-58
2021/08/01 05:09:05;;;;;;;23.00;15.10;;;;;;;24.41;66.07;100278.95;1707437;83;21242;-58
2021/08/01 05:12:09;;;;;;;23.12;15.03;;;;;;;24.54;65.60;100277.64;1728433;83;21382;-58
2021/08/01 05:15:17;;;;;;;20.15;13.90;;;;;;;24.65;65.30;100280.80;1728583;83;21248;-59
2021/08/01 05:18:25;;;;;;;21.00;14.95;;;;;;;24.75;64.70;100277.53;1728477;83;21845;-59
2021/08/01 05:21:31;;;;;;;25.50;14.50;;;;;;;24.88;64.14;100280.40;1728418;82;22042;-58
2021/08/01 05:24:37;;;;;;;20.82;15.40;;;;;;;25.00;63.84;100286.09;1728834;82;21868;-59
2021/08/01 05:27:43;;;;;;;21.52;13.70;;;;;;;25.12;63.34;100286.43;1728545;83;21241;-59
2021/08/01 05:30:47;;;;;;;20.32;14.73;;;;;;;25.25;63.19;100279.75;1728288;83;21426;-58
2021/08/01 05:33:53;;;;;;;24.05;14.93;;;;;;;25.38;62.80;100286.28;1728272;83;21335;-58
2021/08/01 05:37:00;;;;;;;22.35;14.68;;;;;;;25.49;62.99;100288.55;1728788;83;21355;-59
2021/08/01 05:40:10;;;;;;;23.15;14.80;;;;;;;25.62;62.88;100279.62;1705691;83;21374;-60
2021/08/01 05:43:16;;;;;;;19.12;14.20;;;;;;;25.74;62.76;100287.22;1728617;83;21868;-58
2021/08/01 05:46:24;;;;;;;21.07;13.10;;;;;;;25.85;62.26;100284.71;1728665;83;21414;-58
2021/08/01 05:49:30;;;;;;;21.50;13.72;;;;;;;25.96;61.26;100283.60;1728598;83;21355;-59
2021/08/01 05:52:36;;;;;;;16.42;13.08;;;;;;;26.05;60.61;100285.61;1728928;82;21927;-58
2021/08/01 05:55:41;;;;;;;17.10;13.08;;;;;;;26.15;59.27;100287.58;1720630;83;21233;-58
2021/08/01 05:58:47;;;;;;;20.82;13.28;;;;;;;26.26;58.85;100286.46;1720930;83;21237;-58
2021/08/01 06:01:53;;;;;;;18.70;12.70;;;;;;;26.36;58.42;100283.66;1721456;83;21780;-58
2021/08/01 06:04:59;;;;;;;17.32;12.75;;;;;;;26.45;58.03;100281.96;1728547;82;21244;-58
2021/08/01 06:08:04;;;;;;;16.02;13.22;;;;;;;26.58;58.02;100281.39;1728712;83;21213;-58
2021/08/01 06:11:12;;;;;;;15.15;13.03;;;;;;;26.69;56.91;100281.69;1728578;83;21375;-58
2021/08/01 06:14:20;;;;;;;15.53;12.88;;;;;;;26.78;56.13;100285.63;1729070;83;22192;-58
2021/08/01 06:17:26;;;;;;;17.75;12.20;;;;;;;26.91;56.57;100287.81;1705933;83;21911;-58
2021/08/01 06:20:35;;;;;;;21.37;12.33;;;;;;;27.01;54.02;100282.73;1729254;83;21856;-58
2021/08/01 06:23:43;;;;;;;15.38;11.05;;;;;;;27.10;52.99;100288.06;1729186;83;21221;-58
2021/08/01 06:26:50;;;;;;;20.02;12.90;;;;;;;27.20;52.52;100293.07;1729448;83;21363;-58
2021/08/01 06:29:56;;;;;;;15.90;11.70;;;;;;;27.30;52.40;100288.86;1728968;83;21300;-59
2021/08/01 06:33:03;;;;;;;15.95;11.28;;;;;;;27.41;52.84;100285.42;1728399;83;21189;-59
2021/08/01 06:36:20;;;;;;;16.02;11.68;;;;;;;27.51;51.82;100294.64;1728424;83;21912;-58
2021/08/01 06:39:25;;;;;;;11.88;10.65;;;;;;;27.57;51.41;100287.88;1727145;83;22017;-59
2021/08/01 06:42:30;;;;;;;14.18;10.65;;;;;;;27.63;50.47;100288.13;1730127;82;21988;-59
2021/08/01 06:45:37;;;;;;;16.27;10.80;;;;;;;27.71;50.73;100283.30;1711278;83;21457;-58
2021/08/01 06:48:45;;;;;;;12.18;10.28;;;;;;;27.83;50.31;100287.98;1727500;82;21234;-58
2021/08/01 06:51:51;;;;;;;17.55;10.05;;;;;;;27.91;49.15;100286.55;1728031;83;21224;-59
2021/08/01 06:54:57;;;;;;;11.73;9.50;;;;;;;27.99;48.55;100285.13;1727899;83;21414;-58
2021/08/01 06:58:09;;;;;;;10.93;9.23;;;;;;;28.07;48.38;100280.28;1683853;84;21864;-59
2021/08/01 07:01:20;;;;;;;12.53;8.78;;;;;;;28.16;47.77;100282.17;1729497;82;21935;-57
2021/08/01 07:04:26;;;;;;;11.38;9.35;;;;;;;28.25;46.94;100287.44;1708171;83;21885;-58
2021/08/01 07:07:33;;;;;;;13.53;9.48;;;;;;;28.33;46.55;100281.73;1684070;85;21869;-58
2021/08/01 07:10:39;;;;;;;12.00;9.40;;;;;;;28.43;46.69;100283.06;1729035;82;21375;-60
2021/08/01 07:13:50;;;;;;;13.35;9.15;;;;;;;28.50;46.54;100285.84;1685121;84;21789;-58
2021/08/01 07:16:58;;;;;;;13.88;9.98;;;;;;;28.59;46.66;100287.46;1666810;85;21305;-59
2021/08/01 07:20:05;;;;;;;11.68;9.08;;;;;;;28.68;46.53;100281.44;1665936;85;21454;-58
2021/08/01 07:23:11;;;;;;;10.82;7.95;;;;;;;28.77;46.55;100280.50;1666822;86;21719;-59
2021/08/01 07:26:16;;;;;;;14.65;9.00;;;;;;;28.84;45.95;100280.16;1734535;82;21394;-58
2021/08/01 07:29:24;;;;;;;12.23;8.33;;;;;;;28.90;46.05;100279.80;1734533;82;21923;-59
2021/08/01 07:32:31;;;;;;;10.72;8.70;;;;;;;28.99;46.31;100285.61;1678970;85;21209;-59
2021/08/01 07:35:38;;;;;;;12.50;8.00;;;;;;;29.10;45.27;100277.33;1680291;83;21406;-58
2021/08/01 07:38:44;;;;;;;13.05;8.28;;;;;;;29.17;45.16;100277.83;1719966;83;21224;-58
2021/08/01 07:41:51;;;;;;;17.75;8.63;;;;;;;29.26;44.79;100283.06;1716530;83;21229;-61
2021/08/01 07:45:03;;;;;;;12.60;8.10;;;;;;;29.38;44.54;100283.48;1714767;83;21228;-59
2021/08/01 07:48:11;;;;;;;11.80;8.48;;;;;;;29.51;44.02;100277.08;1720155;83;21762;-60
2021/08/01 07:51:17;;;;;;;12.63;7.87;;;;;;;29.65;43.79;100278.08;1711184;82;21916;-60
2021/08/01 07:54:28;;;;;;;10.60;8.13;;;;;;;29.74;42.92;100276.80;1691692;83;21217;-58
2021/08/01 07:57:39;;;;;;;11.43;8.23;;;;;;;29.87;43.71;100278.88;1650172;86;21759;-59
2021/08/01 08:00:44;;;;;;;15.90;9.10;;;;;;;29.87;43.71;100278.88;1660301;85;21230;-59
2021/08/01 08:03:50;;;;;;;12.43;7.87;;;;;;;30.03;42.90;100288.20;1667621;86;21201;-59
2021/08/01 08:06:57;;;;;;;12.50;9.18;;;;;;;30.03;42.90;100288.20;1653796;86;21260;-59
2021/08/01 08:10:04;;;;;;;9.83;7.97;;;;;;;30.16;42.47;100290.26;1668659;85;21261;-59
2021/08/01 08:13:11;;;;;;;10.00;7.62;;;;;;;30.23;42.87;100285.11;1672507;85;21838;-58
2021/08/01 08:16:16;;;;;;;13.30;7.85;;;;;;;30.29;42.06;100282.45;1667771;86;21428;-57
2021/08/01 08:19:21;;;;;;;14.15;8.23;;;;;;;30.47;42.50;100297.13;1653997;86;21236;-58
2021/08/01 08:22:27;;;;;;;15.65;8.65;;;;;;;30.47;42.50;100297.13;1676833;85;21769;-58
2021/08/01 08:25:34;;;;;;;15.03;9.63;;;;;;;30.57;42.52;100295.52;1655399;85;21753;-60
2021/08/01 08:28:40;;;;;;;13.83;8.83;;;;;;;30.76;41.54;100292.69;1620751;88;21300;-59
2021/08/01 08:31:50;;;;;;;10.20;8.35;;;;;;;30.80;40.72;100295.70;1637010;86;21776;-59
2021/08/01 08:34:56;;;;;;;9.08;7.83;;;;;;;30.80;40.72;100295.70;1632559;86;21254;-58
2021/08/01 08:38:02;;;;;;;11.22;8.23;;;;;;;30.91;40.49;100288.71;1633369;87;21795;-59
2021/08/01 08:41:08;;;;;;;10.82;8.33;;;;;;;30.94;40.46;100296.59;1681958;84;21214;-60
2021/08/01 08:44:16;;;;;;;11.88;8.48;;;;;;;30.97;40.44;100291.73;1680768;84;21707;-59
2021/08/01 08:47:27;;;;;;;12.65;7.72;;;;;;;30.99;40.53;100295.91;1685376;84;21808;-59
2021/08/01 08:50:35;;;;;;;9.70;8.43;;;;;;;31.07;39.98;100292.92;1683932;81;21253;-59
2021/08/01 08:53:57;;;;;;;9.70;8.00;;;;;;;31.09;39.14;100294.87;1740489;82;21724;-59
2021/08/01 08:57:03;;;;;;;13.30;8.25;;;;;;;31.05;39.46;100292.42;1741055;81;21744;-60
2021/08/01 09:00:13;;;;;;;10.43;8.48;;;;;;;31.05;38.85;100293.23;1740868;81;21597;-58
2021/08/01 09:03:20;;;;;;;14.18;8.13;;;;;;;31.08;38.93;100290.38;1741061;81;21199;-59
2021/08/01 09:06:29;;;;;;;15.43;8.28;;;;;;;31.17;39.75;100287.08;1744762;81;21283;-59
2021/08/01 09:09:36;;;;;;;8.43;6.92;;;;;;;31.29;39.98;100282.56;1746186;82;21699;-60
2021/08/01 09:12:55;;;;;;;10.78;8.15;;;;;;;31.42;38.28;100290.25;1745820;82;21256;-59
2021/08/01 09:16:04;;;;;;;8.53;7.62;;;;;;;31.51;37.48;100279.00;1746174;81;21252;-58
2021/08/01 09:19:12;;;;;;;12.43;8.03;;;;;;;31.62;37.64;100283.32;1746003;81;21197;-58
2021/08/01 09:22:26;;;;;;;12.88;8.23;;;;;;;31.74;37.38;100285.86;1745895;82;21398;-59
2021/08/01 09:25:31;;;;;;;9.60;7.67;;;;;;;31.84;36.96;100278.56;1731071;82;21733;-57
2021/08/01 09:28:43;;;;;;;9.58;7.90;;;;;;;31.89;36.60;100277.59;1746065;82;21865;-58
2021/08/01 09:31:54;;;;;;;10.15;7.60;;;;;;;31.96;35.83;100276.03;1745641;82;21953;-58
2021/08/01 09:35:04;;;;;;;15.00;7.70;;;;;;;32.04;36.48;100277.25;1745694;82;21201;-59
2021/08/01 09:38:13;;;;;;;13.43;7.47;;;;;;;32.19;37.23;100271.20;1746320;82;21853;-58
2021/08/01 09:41:19;;;;;;;9.85;8.10;;;;;;;32.35;36.61;100266.02;1745377;82;21643;-59
2021/08/01 09:44:28;;;;;;;11.43;8.65;;;;;;;32.44;36.07;100270.62;1745498;82;21204;-58
2021/08/01 09:47:34;;;;;;;13.50;8.55;;;;;;;32.49;35.58;100254.86;1717353;82;21209;-59
2021/08/01 09:50:40;;;;;;;10.00;7.85;;;;;;;32.57;35.94;100257.52;1692168;83;21244;-59
2021/08/01 09:53:45;;;;;;;9.48;8.23;;;;;;;32.66;35.58;100254.15;1687120;84;21247;-59
2021/08/01 09:57:09;;;;;;;9.20;7.50;;;;;;;32.74;35.77;100245.70;1703361;83;21212;-59
2021/08/01 10:00:19;;;;;;;8.40;7.47;;;;;;;32.86;35.76;100247.34;1678787;84;21267;-58
2021/08/01 10:03:51;;;;;;;13.85;7.22;;;;;;;33.05;35.99;100252.78;1689929;84;22158;-59
2021/08/01 10:07:20;;;;;;;9.03;7.28;;;;;;;33.16;34.96;100242.23;1696979;84;21233;-57
2021/08/01 10:10:32;;;;;;;10.40;6.95;;;;;;;33.26;35.24;100250.47;1699259;84;21367;-59
2021/08/01 10:13:40;;;;;;;12.60;8.03;;;;;;;33.37;34.81;100249.56;1655216;86;21891;-59
2021/08/01 10:16:49;;;;;;;10.88;8.03;;;;;;;33.38;34.38;100245.55;1660271;86;21284;-58
2021/08/01 10:19:57;;;;;;;11.10;7.53;;;;;;;33.36;34.43;100247.30;1674398;83;21268;-58
2021/08/01 10:23:05;;;;;;;9.38;6.87;;;;;;;33.40;34.69;100239.60;1668152;86;21857;-59
2021/08/01 10:26:14;;;;;;;12.90;7.67;;;;;;;33.44;34.99;100240.03;1702761;83;21426;-59
2021/08/01 10:29:21;;;;;;;10.75;7.78;;;;;;;33.36;34.91;100232.30;1677527;84;21363;-59
2021/08/01 10:32:33;;;;;;;10.50;7.45;;;;;;;33.27;34.70;100237.09;1699359;84;21386;-60
2021/08/01 10:35:40;;;;;;;12.73;7.33;;;;;;;33.30;34.27;100226.52;1657615;86;21248;-59
2021/08/01 10:38:46;;;;;;;10.28;7.70;;;;;;;33.35;34.03;100227.19;1663444;86;21351;-59
2021/08/01 10:41:54;;;;;;;10.65;7.12;;;;;;;33.44;34.43;100218.73;1664438;86;21378;-59
2021/08/01 10:45:04;;;;;;;8.75;7.85;;;;;;;33.54;34.33;100223.27;1668791;85;21442;-59
2021/08/01 10:48:10;;;;;;;10.75;7.97;;;;;;;33.64;33.56;100220.08;1668258;86;21367;-58
2021/08/01 10:51:18;;;;;;;8.70;7.30;;;;;;;33.73;33.73;100216.08;1661806;85;21434;-59
2021/08/01 10:54:34;;;;;;;9.28;7.58;;;;;;;33.79;33.08;100221.03;1633274;85;21800;-58
2021/08/01 10:57:42;;;;;;;10.00;7.00;;;;;;;33.92;33.54;100218.66;1638866;87;21420;-58
2021/08/01 11:01:07;;;;;;;10.13;7.55;;;;;;;34.07;33.99;100207.61;1629385;87;21277;-59
2021/08/01 11:04:37;;;;;;;11.18;7.28;;;;;;;34.10;32.75;100216.03;1646618;86;21234;-60
2021/08/01 11:07:50;;;;;;;9.50;7.28;;;;;;;34.10;32.75;100208.36;1643585;87;21396;-59
2021/08/01 11:11:20;;;;;;;8.88;7.25;;;;;;;34.23;32.63;100212.19;1636722;87;21298;-58
2021/08/01 11:14:56;;;;;;;13.98;7.10;;;;;;;34.35;33.18;100205.21;1637208;87;21787;-59
2021/08/01 11:18:13;;;;;;;10.18;7.00;;;;;;;34.31;32.76;100197.13;1636990;87;21239;-58
2021/08/01 11:21:20;;;;;;;9.18;7.22;;;;;;;34.34;32.51;100201.55;1637430;87;21665;-58
2021/08/01 11:24:26;;;;;;;8.88;6.80;;;;;;;34.43;33.80;100193.02;1636967;87;21263;-60
2021/08/01 11:27:33;;;;;;;10.18;7.53;;;;;;;34.57;33.08;100203.59;1636677;87;21457;-58
2021/08/01 11:31:03;;;;;;;10.82;6.97;;;;;;;34.64;32.27;100206.20;1638377;87;21394;-58
2021/08/01 11:34:29;;;;;;;9.65;7.42;;;;;;;34.71;32.01;100197.14;1637901;87;21280;-59
2021/08/01 11:37:40;;;;;;;9.15;6.97;;;;;;;34.77;31.12;100186.63;1638696;87;21251;-58
2021/08/01 11:40:52;;;;;;;9.55;7.10;;;;;;;34.84;32.25;100186.09;1637231;87;21242;-59
2021/08/01 11:44:23;;;;;;;8.93;6.92;;;;;;;34.93;31.92;100183.26;1624545;87;21286;-60
2021/08/01 11:47:33;;;;;;;11.35;7.03;;;;;;;34.99;31.69;100181.31;1657675;84;21422;-60
2021/08/01 11:50:42;;;;;;;13.85;9.30;;;;;;;35.06;32.18;100174.47;1711030;83;21241;-58
2021/08/01 11:53:54;;;;;;;13.98;8.78;;;;;;;35.13;32.11;100178.20;1702457;82;21255;-58
2021/08/01 11:57:02;;;;;;;11.18;7.55;;;;;;;35.15;31.36;100163.89;1708540;83;21387;-59
2021/08/01 12:00:12;;;;;;;8.17;7.27;;;;;;;35.14;31.27;100175.63;1708223;84;21901;-59
2021/08/01 12:03:20;;;;;;;8.88;7.17;;;;;;;35.12;31.37;100171.70;1705244;84;21862;-59
2021/08/01 12:06:43;;;;;;;12.13;7.30;;;;;;;35.07;30.96;100166.77;1705279;84;21363;-58
2021/08/01 12:09:50;;;;;;;11.53;7.05;;;;;;;35.01;31.30;100173.27;1705593;83;21225;-59
2021/08/01 12:12:59;;;;;;;8.58;6.85;;;;;;;34.95;31.25;100173.19;1705979;84;21366;-60
2021/08/01 12:16:06;;;;;;;9.70;6.40;;;;;;;34.97;30.35;100178.54;1691171;83;21252;-59
2021/08/01 12:19:27;;;;;;;11.50;7.05;;;;;;;34.97;31.31;100177.11;1732848;82;21744;-59
2021/08/01 12:22:34;;;;;;;9.93;6.42;;;;;;;35.01;31.72;100183.23;1730771;82;21323;-60
2021/08/01 12:25:54;;;;;;;9.35;6.97;;;;;;;35.05;30.82;100182.77;1721780;81;21237;-58
2021/08/01 12:29:00;;;;;;;8.88;6.60;;;;;;;35.04;30.67;100178.84;1719168;81;21181;-58
2021/08/01 12:32:07;;;;;;;7.95;6.55;;;;;;;35.00;30.64;100168.73;1715860;81;21205;-59
2021/08/01 12:35:17;;;;;;;9.05;6.72;;;;;;;34.97;31.09;100176.53;1700086;83;21842;-58
2021/08/01 12:38:22;;;;;;;8.08;6.60;;;;;;;34.90;31.72;100171.98;1700345;84;21269;-60
2021/08/01 12:41:29;;;;;;;10.18;7.10;;;;;;;34.84;31.62;100174.72;1683554;84;21545;-58
2021/08/01 12:44:36;;;;;;;7.92;6.60;;;;;;;34.75;30.61;100176.20;1700690;84;21761;-59
2021/08/01 12:47:42;;;;;;;11.00;6.40;;;;;;;34.70;31.76;100168.42;1716170;83;21726;-59
2021/08/01 12:50:51;;;;;;;8.68;6.65;;;;;;;34.65;32.03;100170.03;1681676;85;21223;-58
2021/08/01 12:53:59;;;;;;;7.72;6.87;;;;;;;34.60;32.15;100167.39;1716272;83;21231;-58
2021/08/01 12:57:15;;;;;;;9.88;6.90;;;;;;;34.53;31.84;100162.23;1685379;82;21811;-59
2021/08/01 13:00:29;;;;;;;10.10;6.90;;;;;;;34.47;31.63;100159.30;1671504;86;21319;-59
2021/08/01 13:03:41;;;;;;;8.95;6.47;;;;;;;34.41;31.71;100164.11;1680930;85;21391;-60
2021/08/01 13:06:48;;;;;;;7.78;6.92;;;;;;;34.36;31.16;100155.12;1655949;86;21251;-59
2021/08/01 13:10:10;;;;;;;9.45;7.80;;;;;;;34.33;31.09;100146.45;1654847;85;21242;-59
2021/08/01 13:13:26;;;;;;;9.20;7.58;;;;;;;34.31;31.32;100150.22;1710479;83;21204;-59
2021/08/01 13:16:32;;;;;;;9.28;7.25;;;;;;;34.31;32.42;100143.11;1710587;84;21223;-60
2021/08/01 13:19:46;;;;;;;10.13;7.70;;;;;;;34.26;32.85;100139.86;1710354;84;21181;-60
2021/08/01 13:22:52;;;;;;;14.47;8.15;;;;;;;34.25;32.74;100135.94;1710224;84;21196;-60
2021/08/01 13:25:58;;;;;;;9.90;8.80;;;;;;;34.19;32.53;100138.11;1710157;84;21243;-59
2021/08/01 13:29:31;;;;;;;11.12;8.30;;;;;;;34.15;32.05;100131.45;1710525;84;21207;-60
2021/08/01 13:32:37;;;;;;;11.65;8.55;;;;;;;34.14;32.44;100134.02;1710768;84;21296;-59
2021/08/01 13:35:43;;;;;;;12.55;8.13;;;;;;;34.17;33.14;100128.27;1688917;84;21212;-60
2021/08/01 13:38:50;;;;;;;10.32;8.58;;;;;;;34.23;32.60;100128.33;1714975;82;21327;-59
2021/08/01 13:42:08;;;;;;;13.95;8.13;;;;;;;34.28;32.89;100131.80;1678821;84;21809;-60
2021/08/01 13:45:16;;;;;;;10.72;8.53;;;;;;;34.29;32.22;100127.81;1657240;86;21308;-59
2021/08/01 13:48:22;;;;;;;11.05;9.13;;;;;;;34.29;32.28;100134.07;1630549;86;21228;-59
2021/08/01 13:51:32;;;;;;;12.33;8.93;;;;;;;34.26;32.87;100133.33;1628475;87;22284;-60
2021/08/01 13:54:42;;;;;;;9.73;8.48;;;;;;;34.19;33.02;100126.74;1644527;86;21301;-62
2021/08/01 13:57:48;;;;;;;13.22;8.85;;;;;;;34.15;32.88;100127.77;1653134;84;21314;-60
2021/08/01 14:00:55;;;;;;;13.55;8.53;;;;;;;34.14;32.84;100126.91;1709469;84;21417;-59
2021/08/01 14:04:01;;;;;;;14.00;8.70;;;;;;;34.14;32.52;100120.42;1688374;84;21354;-60
2021/08/01 14:07:10;;;;;;;9.40;8.40;;;;;;;34.21;33.26;100117.88;1688936;84;21208;-60
2021/08/01 14:10:19;;;;;;;13.83;8.88;;;;;;;34.24;32.80;100121.45;1658329;85;21470;-59
2021/08/01 14:13:27;;;;;;;11.90;7.83;;;;;;;34.24;31.87;100117.19;1683738;84;21210;-60
2021/08/01 14:16:32;;;;;;;12.93;8.28;;;;;;;34.16;32.16;100119.47;1692377;83;21786;-60
2021/08/01 14:19:37;;;;;;;9.50;7.70;;;;;;;34.15;32.36;100113.55;1682486;84;21750;-59
2021/08/01 14:22:43;;;;;;;12.20;8.50;;;;;;;34.12;32.74;100110.81;1649422;87;21402;-60
2021/08/01 14:25:52;;;;;;;10.40;7.87;;;;;;;34.09;32.04;100101.55;1626851;87;21274;-59
2021/08/01 14:29:00;;;;;;;11.97;8.58;;;;;;;34.08;31.77;100106.11;1642078;87;21258;-60
2021/08/01 14:32:11;;;;;;;9.50;8.10;;;;;;;34.09;32.15;100100.70;1642039;87;21361;-60